Time;durP1;ratioP1;P1;durP2;ratioP2;P2;SDS_P1;SDS_P2;PMS_P1;PMS_P2;Temp;Humidity;BMP_temperature;BMP_pressure;BME280_temperature;BME280_humidity;BME280_pressure;Samples;Min_cycle;Max_cycle;Signal;HPM_P1;HPM_P2
2021/01/10 00:32:03;;;;;;;;;;;;;;;-9.84;54.17;102540.16;5052263;23;19922;-83
2021/01/10 00:34:32;;;;;;;;;;;;;;;-9.69;51.33;102556.47;5029269;23;19929;-81
2021/01/10 00:37:00;;;;;;;;;;;;;;;-9.49;50.32;102572.50;4987193;28;19922;-80
2021/01/10 00:39:26;;;;;;;;;;;;;;;-9.31;49.54;102566.28;4986222;28;19948;-79
2021/01/10 01:10:19;;;;;;;;;;;;;;;-8.48;47.20;102571.97;5246887;23;19922;-80
2021/01/10 01:12:46;;;;;;;;;;;;;;;-8.60;47.88;102567.25;4985706;28;19934;-81
2021/01/10 01:15:13;;;;;;;;;;;;;;;-8.31;48.09;102562.16;4982710;28;20288;-80
2021/01/10 01:17:39;;;;;;;;;;;;;;;-8.39;47.28;102558.03;4982321;28;20327;-79
2021/01/10 01:20:08;;;;;;;;;;;;;;;-8.45;46.82;102565.56;4985928;28;19929;-81
2021/01/10 01:22:37;;;;;;;;;;;;;;;-8.43;47.14;102563.66;4989115;28;20001;-81
2021/01/10 01:25:04;;;;;;;;;;;;;;;-8.42;46.43;102570.78;4984062;28;19914;-81
2021/01/10 01:27:33;;;;;;;;;;;;;;;-8.64;43.69;102571.91;4999506;28;19961;-80
2021/01/10 01:29:59;;;;;;;;;;;;;;;-8.62;44.11;102572.69;4981099;28;19946;-80
2021/01/10 01:32:25;;;;;;;;;;;;;;;-8.51;44.17;102572.13;4964916;28;19969;-80
2021/01/10 01:34:51;;;;;;;;;;;;;;;-8.26;44.09;102570.84;4983590;28;19914;-80
2021/01/10 01:37:17;;;;;;;;;;;;;;;-7.94;43.27;102575.41;5000364;28;19981;-82
2021/01/10 01:39:44;;;;;;;;;;;;;;;-7.89;44.15;102571.56;4980372;28;20378;-79
2021/01/10 01:42:14;;;;;;;;;;;;;;;-7.73;45.50;102568.03;4963482;28;20297;-79
2021/01/10 01:44:43;;;;;;;;;;;;;;;-7.67;49.06;102567.66;4985450;28;20401;-83
2021/01/10 01:47:11;;;;;;;;;;;;;;;-7.63;49.26;102562.97;4986440;28;19918;-82
2021/01/10 01:49:41;;;;;;;;;;;;;;;-7.53;49.61;102552.56;4989197;28;20359;-81
2021/01/10 01:52:08;;;;;;;;;;;;;;;-7.34;49.20;102550.59;4981786;28;20001;-79
2021/01/10 01:54:35;;;;;;;;;;;;;;;-7.46;50.13;102553.97;4982099;28;19949;-80
2021/01/10 01:57:01;;;;;;;;;;;;;;;-7.59;48.38;102548.41;4983942;28;19914;-79
2021/01/10 01:59:27;;;;;;;;;;;;;;;-7.70;48.86;102546.31;4982205;28;20386;-79
2021/01/10 02:01:53;;;;;;;;;;;;;;;-7.60;48.82;102542.16;4982994;28;19925;-79
2021/01/10 02:04:25;;;;;;;;;;;;;;;-7.84;48.88;102547.94;4982008;28;19961;-79
2021/01/10 02:07:16;;;;;;;;;;;;;;;-7.77;49.26;102535.03;4983650;28;19914;-80
2021/01/10 02:09:48;;;;;;;;;;;;;;;-7.77;49.06;102545.81;4977255;28;19926;-79
2021/01/10 02:12:17;;;;;;;;;;;;;;;-7.67;49.06;102547.97;4964471;28;19949;-80
2021/01/10 02:14:46;;;;;;;;;;;;;;;-7.81;48.26;102546.06;4981643;28;19914;-80
2021/01/10 02:17:14;;;;;;;;;;;;;;;-7.67;47.76;102545.28;4982448;28;19964;-78
2021/01/10 02:19:47;;;;;;;;;;;;;;;-7.28;47.29;102536.78;4981458;28;19945;-80
2021/01/10 02:22:14;;;;;;;;;;;;;;;-7.26;47.39;102536.66;4983781;28;19918;-79
2021/01/10 02:24:43;;;;;;;;;;;;;;;-7.28;48.52;102536.78;4982470;28;19985;-78
2021/01/10 02:27:09;;;;;;;;;;;;;;;-7.08;47.34;102532.03;4982849;28;19957;-80
2021/01/10 02:29:36;;;;;;;;;;;;;;;-6.99;46.64;102530.66;4981201;28;19914;-79
2021/01/10 02:32:05;;;;;;;;;;;;;;;-7.37;46.27;102520.28;4979829;28;20438;-78
2021/01/10 02:34:33;;;;;;;;;;;;;;;-6.97;45.54;102517.09;4980665;28;19929;-79
2021/01/10 02:37:10;;;;;;;;;;;;;;;-6.85;45.99;102507.41;4982242;28;20005;-80
2021/01/10 02:40:00;;;;;;;;;;;;;;;-6.87;43.00;102499.41;4985680;28;19941;-78
2021/01/10 02:42:31;;;;;;;;;;;;;;;-6.72;44.90;102500.31;4983370;28;19914;-79
2021/01/10 02:45:03;;;;;;;;;;;;;;;-6.76;44.06;102499.63;4985123;28;19917;-79
2021/01/10 02:47:31;;;;;;;;;;;;;;;-6.82;45.09;102488.38;4985437;28;19968;-79
2021/01/10 02:49:58;;;;;;;;;;;;;;;-6.79;42.90;102494.44;4967391;28;20386;-79
2021/01/10 02:52:24;;;;;;;;;;;;;;;-6.74;43.12;102481.56;4982896;28;19965;-79
2021/01/10 02:54:53;;;;;;;;;;;;;;;-6.93;42.93;102478.25;4982292;28;19929;-78
2021/01/10 02:57:35;;;;;;;;;;;;;;;-6.96;42.58;102473.91;4965119;28;19968;-79
2021/01/10 03:00:04;;;;;;;;;;;;;;;-6.86;43.29;102466.13;4983705;28;19918;-79
2021/01/10 03:02:30;;;;;;;;;;;;;;;-6.81;42.44;102474.81;4964845;28;19914;-78
2021/01/10 03:05:09;;;;;;;;;;;;;;;-6.93;41.80;102459.38;4961979;28;19922;-80
2021/01/10 03:07:43;;;;;;;;;;;;;;;-6.89;41.66;102456.41;4980435;28;20359;-80
2021/01/10 03:10:13;;;;;;;;;;;;;;;-6.78;40.65;102446.84;4989973;28;19917;-80
2021/01/10 03:12:45;;;;;;;;;;;;;;;-6.56;41.22;102451.75;5000262;28;19918;-80
2021/01/10 03:15:12;;;;;;;;;;;;;;;-6.40;40.82;102450.78;5000443;28;19937;-79
2021/01/10 03:17:45;;;;;;;;;;;;;;;-6.37;39.34;102450.63;4999138;28;19913;-81
2021/01/10 03:20:11;;;;;;;;;;;;;;;-6.23;40.21;102458.66;5000752;28;20001;-80
2021/01/10 03:22:38;;;;;;;;;;;;;;;-6.06;39.79;102449.50;5000213;28;19985;-79
2021/01/10 03:25:06;;;;;;;;;;;;;;;-6.00;39.25;102453.59;4998644;28;20469;-81
2021/01/10 03:27:33;;;;;;;;;;;;;;;-5.94;39.18;102447.81;4997378;28;19953;-80
2021/01/10 03:30:00;;;;;;;;;;;;;;;-6.01;38.47;102440.25;4996762;28;19920;-80
2021/01/10 03:32:31;;;;;;;;;;;;;;;-5.99;39.00;102438.31;4996970;28;20362;-80
2021/01/10 03:34:57;;;;;;;;;;;;;;;-6.14;38.19;102440.19;4979189;28;20272;-81
2021/01/10 03:37:23;;;;;;;;;;;;;;;-6.14;38.59;102424.88;4978269;28;19914;-80
2021/01/10 03:39:49;;;;;;;;;;;;;;;-5.93;37.87;102432.53;5012647;28;19913;-81
2021/01/10 03:42:16;;;;;;;;;;;;;;;-5.65;37.66;102418.06;4997102;28;19929;-81
2021/01/10 03:44:45;;;;;;;;;;;;;;;-5.86;37.59;102411.38;4998803;28;19917;-79
2021/01/10 03:47:15;;;;;;;;;;;;;;;-5.88;37.24;102407.94;4997785;28;19913;-80
2021/01/10 03:49:41;;;;;;;;;;;;;;;-5.70;37.81;102411.25;4998067;28;19910;-80
2021/01/10 03:52:07;;;;;;;;;;;;;;;-5.82;37.93;102402.13;4998448;28;19917;-80
2021/01/10 03:54:34;;;;;;;;;;;;;;;-5.58;37.66;102401.47;4994487;28;19960;-79
2021/01/10 03:57:00;;;;;;;;;;;;;;;-5.43;38.27;102402.25;4996116;28;19929;-78
2021/01/10 03:59:28;;;;;;;;;;;;;;;-5.52;38.71;102401.06;4996488;28;19913;-81
2021/01/10 04:01:55;;;;;;;;;;;;;;;-5.92;38.96;102408.16;4999589;28;19968;-80
2021/01/10 04:04:23;;;;;;;;;;;;;;;-5.57;38.59;102404.09;5000227;28;19988;-79
2021/01/10 04:06:50;;;;;;;;;;;;;;;-5.55;38.77;102398.56;4999558;28;20359;-80
2021/01/10 04:09:17;;;;;;;;;;;;;;;-5.40;38.44;102386.72;4979744;28;19968;-83
2021/01/10 04:11:52;;;;;;;;;;;;;;;-5.20;38.18;102387.19;4997411;28;19918;-80
2021/01/10 04:14:19;;;;;;;;;;;;;;;-5.00;37.02;102383.13;4996865;28;19914;-81
2021/01/10 04:16:45;;;;;;;;;;;;;;;-4.93;37.63;102374.59;4979975;28;20387;-80
2021/01/10 04:19:11;;;;;;;;;;;;;;;-4.93;37.69;102380.88;4981234;28;20264;-80
2021/01/10 04:21:37;;;;;;;;;;;;;;;-4.91;37.58;102365.41;4980134;28;19917;-81
2021/01/10 04:24:04;;;;;;;;;;;;;;;-4.75;37.63;102367.03;4980319;28;19925;-80
2021/01/10 04:26:37;;;;;;;;;;;;;;;-4.60;36.77;102363.22;4980507;28;19910;-80
2021/01/10 04:29:05;;;;;;;;;;;;;;;-4.62;36.24;102353.50;4964106;28;20026;-83
2021/01/10 04:31:31;;;;;;;;;;;;;;;-4.71;36.19;102355.00;4980648;28;19914;-79
2021/01/10 04:33:58;;;;;;;;;;;;;;;-4.79;36.83;102346.59;4982355;28;19977;-79
2021/01/10 04:36:30;;;;;;;;;;;;;;;-4.49;35.50;102342.66;4982598;28;19925;-79
2021/01/10 04:38:57;;;;;;;;;;;;;;;-4.37;36.12;102333.66;4980427;28;19922;-81
2021/01/10 04:41:24;;;;;;;;;;;;;;;-4.30;36.62;102329.53;4976733;28;19914;-82
2021/01/10 04:43:51;;;;;;;;;;;;;;;-4.15;37.19;102329.38;4979376;28;19914;-81
2021/01/10 04:46:19;;;;;;;;;;;;;;;-4.29;36.96;102323.13;4980325;28;20000;-80
2021/01/10 04:48:46;;;;;;;;;;;;;;;-4.07;36.05;102320.66;4975617;28;20021;-78
2021/01/10 04:51:15;;;;;;;;;;;;;;;-4.31;35.84;102311.56;4977106;28;19969;-79
2021/01/10 04:53:43;;;;;;;;;;;;;;;-4.67;36.08;102315.97;4997076;28;19922;-81
2021/01/10 04:56:09;;;;;;;;;;;;;;;-4.71;36.67;102311.75;4998194;28;19927;-82
2021/01/10 04:58:36;;;;;;;;;;;;;;;-4.75;37.56;102308.41;4996772;28;19969;-81
2021/01/10 05:01:05;;;;;;;;;;;;;;;-4.83;38.54;102313.50;4980440;28;19937;-80
2021/01/10 05:03:34;;;;;;;;;;;;;;;-4.62;37.35;102324.63;5000136;28;19936;-79
2021/01/10 05:06:00;;;;;;;;;;;;;;;-4.92;37.67;102309.66;4999582;28;19910;-80
2021/01/10 05:08:27;;;;;;;;;;;;;;;-4.87;38.29;102302.06;4982045;28;19928;-81
2021/01/10 05:10:54;;;;;;;;;;;;;;;-4.62;37.16;102297.59;4999042;28;19921;-80
2021/01/10 05:13:20;;;;;;;;;;;;;;;-4.75;36.88;102299.47;4996495;28;20044;-80
2021/01/10 05:15:46;;;;;;;;;;;;;;;-4.79;37.25;102292.53;5000140;28;19964;-80
2021/01/10 05:18:13;;;;;;;;;;;;;;;-4.84;37.78;102293.75;4999451;28;19937;-81
2021/01/10 05:20:40;;;;;;;;;;;;;;;-4.59;37.10;102296.53;4983162;28;19914;-79
2021/01/10 05:23:06;;;;;;;;;;;;;;;-4.53;37.09;102290.66;5001347;28;19914;-80
2021/01/10 05:25:32;;;;;;;;;;;;;;;-4.60;36.91;102292.06;4999986;28;19920;-81
2021/01/10 05:27:58;;;;;;;;;;;;;;;-4.43;36.74;102293.53;4997811;28;19990;-81
2021/01/10 05:30:29;;;;;;;;;;;;;;;-4.36;36.85;102285.84;4990407;28;19918;-81
2021/01/10 05:32:59;;;;;;;;;;;;;;;-4.28;36.96;102278.88;4965019;28;20009;-80
2021/01/10 05:35:26;;;;;;;;;;;;;;;-4.44;37.20;102298.09;4983895;28;19997;-80
2021/01/10 05:37:56;;;;;;;;;;;;;;;-4.45;37.31;102277.41;4984469;28;19914;-79
2021/01/10 05:40:28;;;;;;;;;;;;;;;-4.22;36.84;102284.81;4983328;28;20336;-80
2021/01/10 05:42:55;;;;;;;;;;;;;;;-4.12;36.81;102296.66;4982854;28;19952;-82
2021/01/10 05:45:35;;;;;;;;;;;;;;;-4.07;37.15;102294.50;5001543;28;20291;-81
2021/01/10 05:48:12;;;;;;;;;;;;;;;-3.88;37.27;102303.91;5000350;28;19910;-83
2021/01/10 05:50:42;;;;;;;;;;;;;;;-4.12;37.37;102297.53;4982070;28;19972;-79
2021/01/10 05:53:34;;;;;;;;;;;;;;;-4.16;36.73;102292.47;4983162;28;19918;-80
2021/01/10 05:56:01;;;;;;;;;;;;;;;-4.26;36.86;102298.56;4997536;28;19917;-80
2021/01/10 05:58:32;;;;;;;;;;;;;;;-4.28;37.15;102305.94;4994659;28;19918;-82
2021/01/10 06:00:59;;;;;;;;;;;;;;;-4.00;36.86;102306.59;4980661;28;19921;-80
2021/01/10 06:03:28;;;;;;;;;;;;;;;-3.85;36.66;102298.28;4979859;28;19921;-81
2021/01/10 06:05:55;;;;;;;;;;;;;;;-3.70;36.77;102296.25;4976351;28;19914;-82
2021/01/10 06:08:25;;;;;;;;;;;;;;;-3.88;36.82;102296.66;4974794;28;19918;-80
2021/01/10 06:10:51;;;;;;;;;;;;;;;-3.82;37.07;102308.88;4993101;28;19925;-80
2021/01/10 06:13:19;;;;;;;;;;;;;;;-3.62;36.22;102310.06;4995931;28;19921;-80
2021/01/10 06:15:48;;;;;;;;;;;;;;;-3.73;35.95;102308.16;4979799;28;20417;-81
2021/01/10 06:18:15;;;;;;;;;;;;;;;-3.82;36.38;102308.03;4996222;28;20000;-82
2021/01/10 06:20:42;;;;;;;;;;;;;;;-3.80;37.07;102312.31;4995499;28;19914;-82
2021/01/10 06:23:08;;;;;;;;;;;;;;;-4.03;37.98;102312.22;4978332;28;19949;-81
2021/01/10 06:25:41;;;;;;;;;;;;;;;-3.95;37.72;102308.06;4996642;28;19914;-80
2021/01/10 06:28:20;;;;;;;;;;;;;;;-3.94;38.00;102309.81;4980564;28;19922;-80
2021/01/10 06:30:55;;;;;;;;;;;;;;;-3.96;38.73;102309.03;4980292;28;20375;-78
2021/01/10 06:33:27;;;;;;;;;;;;;;;-3.82;38.96;102311.56;4995910;28;19944;-81
2021/01/10 06:35:58;;;;;;;;;;;;;;;-3.76;38.96;102308.41;4994607;28;19925;-81
2021/01/10 06:38:26;;;;;;;;;;;;;;;-3.70;38.60;102309.78;4994669;28;19913;-82
2021/01/10 06:41:07;;;;;;;;;;;;;;;-3.76;39.22;102313.81;4993579;28;19929;-80
2021/01/10 06:43:34;;;;;;;;;;;;;;;-3.78;38.63;102312.22;4995462;28;19918;-81
2021/01/10 06:46:01;;;;;;;;;;;;;;;-4.12;39.71;102316.47;4995573;28;19910;-81
2021/01/10 06:48:27;;;;;;;;;;;;;;;-4.20;39.99;102331.53;4996023;28;19914;-80
2021/01/10 06:50:55;;;;;;;;;;;;;;;-4.77;40.95;102328.44;4997976;28;20359;-85
2021/01/10 06:53:22;;;;;;;;;;;;;;;-4.56;40.73;102326.03;5004119;28;19917;-79
2021/01/10 06:55:48;;;;;;;;;;;;;;;-4.58;41.26;102317.16;4998116;28;20397;-78
2021/01/10 06:58:14;;;;;;;;;;;;;;;-4.78;41.39;102324.88;4997951;28;20357;-80
2021/01/10 07:00:51;;;;;;;;;;;;;;;-4.59;41.37;102327.09;4997058;28;20301;-79
2021/01/10 07:03:18;;;;;;;;;;;;;;;-5.04;41.72;102332.13;4995771;28;19913;-79
2021/01/10 07:05:56;;;;;;;;;;;;;;;-4.83;41.38;102330.59;4996838;28;20362;-80
2021/01/10 07:08:34;;;;;;;;;;;;;;;-4.79;41.57;102335.78;4997959;28;19913;-80
2021/01/10 07:11:29;;;;;;;;;;;;;;;-4.79;41.84;102336.66;4998671;28;20016;-82
2021/01/10 07:14:03;;;;;;;;;;;;;;;-5.03;42.89;102336.53;4984389;28;20290;-80
2021/01/10 07:16:31;;;;;;;;;;;;;;;-4.96;43.45;102345.94;5000031;28;19938;-79
2021/01/10 07:18:59;;;;;;;;;;;;;;;-4.65;42.98;102349.16;4996525;28;19945;-82
2021/01/10 07:21:32;;;;;;;;;;;;;;;-4.76;43.77;102343.69;4995392;28;19957;-80
2021/01/10 07:24:24;;;;;;;;;;;;;;;-4.93;43.25;102345.75;4998297;28;20412;-83
2021/01/10 07:26:51;;;;;;;;;;;;;;;-4.82;43.16;102342.25;4998790;28;19918;-81
2021/01/10 07:29:32;;;;;;;;;;;;;;;-4.67;43.70;102349.28;4999894;28;19945;-79
2021/01/10 07:31:58;;;;;;;;;;;;;;;-4.87;43.60;102352.53;5012177;28;19925;-80
2021/01/10 07:34:25;;;;;;;;;;;;;;;-4.71;43.54;102355.00;4995940;28;20692;-80
2021/01/10 07:36:53;;;;;;;;;;;;;;;-4.78;44.35;102354.59;4995797;28;19914;-79
2021/01/10 07:39:25;;;;;;;;;;;;;;;-4.83;45.31;102354.91;4995660;28;19922;-79
2021/01/10 07:42:11;;;;;;;;;;;;;;;-4.89;46.86;102357.19;4993534;28;19922;-81
2021/01/10 07:44:52;;;;;;;;;;;;;;;-4.71;47.47;102355.00;4994802;28;20302;-80
2021/01/10 07:47:38;;;;;;;;;;;;;;;-4.82;48.05;102351.25;4991694;28;20371;-80
2021/01/10 07:50:15;;;;;;;;;;;;;;;-4.68;48.04;102362.91;4995131;28;19918;-80
2021/01/10 07:52:45;;;;;;;;;;;;;;;-5.03;48.27;102360.84;4996056;28;19925;-81
2021/01/10 07:55:20;;;;;;;;;;;;;;;-4.87;48.23;102353.41;4998702;28;20012;-80
2021/01/10 07:57:50;;;;;;;;;;;;;;;-4.74;47.83;102366.03;5011788;28;19932;-80
2021/01/10 08:00:16;;;;;;;;;;;;;;;-4.90;47.72;102359.03;4989730;28;19926;-81
2021/01/10 08:02:49;;;;;;;;;;;;;;;-4.79;47.79;102369.06;4992179;28;19918;-81
2021/01/10 08:05:16;;;;;;;;;;;;;;;-4.99;47.63;102367.78;4993929;28;19912;-81
2021/01/10 08:07:47;;;;;;;;;;;;;;;-5.10;47.92;102368.53;4995659;28;19964;-81
2021/01/10 08:10:14;;;;;;;;;;;;;;;-4.97;47.42;102365.84;4984580;28;21394;-82
2021/01/10 08:12:40;;;;;;;;;;;;;;;-4.98;47.86;102364.09;4962378;28;19966;-80
2021/01/10 08:15:07;;;;;;;;;;;;;;;-4.95;47.71;102372.88;4976939;28;19933;-83
2021/01/10 08:17:37;;;;;;;;;;;;;;;-4.87;47.68;102376.88;4974558;28;20085;-83
2021/01/10 08:20:04;;;;;;;;;;;;;;;-4.99;47.50;102378.59;4957529;28;19918;-81
2021/01/10 08:22:30;;;;;;;;;;;;;;;-5.03;47.73;102387.88;4972857;28;19922;-80
2021/01/10 08:24:57;;;;;;;;;;;;;;;-5.12;47.69;102376.72;4955992;28;20017;-82
2021/01/10 08:27:24;;;;;;;;;;;;;;;-5.12;47.74;102379.44;4974014;28;19928;-81
2021/01/10 08:29:51;;;;;;;;;;;;;;;-5.02;46.90;102378.78;4958886;28;19914;-81
2021/01/10 08:32:18;;;;;;;;;;;;;;;-5.07;47.50;102383.66;4973605;28;19918;-81
2021/01/10 08:34:46;;;;;;;;;;;;;;;-5.14;47.88;102386.78;4970206;28;19918;-81
2021/01/10 08:37:13;;;;;;;;;;;;;;;-5.10;46.43;102395.53;4969530;28;19926;-81
2021/01/10 08:39:39;;;;;;;;;;;;;;;-5.04;46.87;102394.25;4952309;28;19993;-82
2021/01/10 08:42:06;;;;;;;;;;;;;;;-4.92;46.56;102401.50;4970323;28;19918;-83
2021/01/10 08:44:35;;;;;;;;;;;;;;;-4.99;46.93;102405.59;4971141;28;19925;-81
2021/01/10 08:47:06;;;;;;;;;;;;;;;-4.97;47.02;102412.63;4990278;28;19909;-83
2021/01/10 08:49:32;;;;;;;;;;;;;;;-5.03;47.13;102410.34;4977504;28;20359;-82
2021/01/10 08:52:03;;;;;;;;;;;;;;;-5.00;47.10;102420.09;4973666;28;19902;-80
2021/01/10 08:54:29;;;;;;;;;;;;;;;-4.94;47.66;102416.94;4975553;28;19922;-88
2021/01/10 08:56:57;;;;;;;;;;;;;;;-4.96;47.40;102421.59;4977900;28;19961;-80
2021/01/10 08:59:39;;;;;;;;;;;;;;;-4.96;47.96;102427.88;4959875;28;19961;-81
2021/01/10 09:02:06;;;;;;;;;;;;;;;-5.02;48.80;102428.28;4977304;28;19973;-80
2021/01/10 09:04:37;;;;;;;;;;;;;;;-5.13;48.16;102426.31;4998997;28;19926;-80
2021/01/10 09:07:17;;;;;;;;;;;;;;;-5.23;48.35;102436.03;4979618;28;19918;-81
2021/01/10 09:09:48;;;;;;;;;;;;;;;-5.23;48.58;102436.03;4983687;28;19945;-80
2021/01/10 09:12:24;;;;;;;;;;;;;;;-5.17;48.39;102440.16;4992304;28;19918;-81
2021/01/10 09:14:56;;;;;;;;;;;;;;;-5.27;48.37;102450.69;4981039;28;19921;-83
2021/01/10 09:17:27;;;;;;;;;;;;;;;-5.13;48.52;102445.22;4970280;28;19918;-81
2021/01/10 09:19:59;;;;;;;;;;;;;;;-5.15;48.37;102468.78;4990172;28;19926;-81
2021/01/10 09:22:32;;;;;;;;;;;;;;;-5.13;48.08;102458.75;4994526;28;19924;-81
2021/01/10 09:25:07;;;;;;;;;;;;;;;-5.05;47.57;102465.47;4976999;28;19918;-84
2021/01/10 09:27:33;;;;;;;;;;;;;;;-5.13;47.88;102458.75;4994120;28;19989;-81
2021/01/10 09:30:04;;;;;;;;;;;;;;;-5.09;48.17;102454.88;4987951;28;19961;-82
2021/01/10 09:32:31;;;;;;;;;;;;;;;-5.09;48.59;102460.28;4979985;28;19922;-81
2021/01/10 09:34:57;;;;;;;;;;;;;;;-5.05;48.57;102451.94;4987302;28;19965;-80
2021/01/10 09:37:28;;;;;;;;;;;;;;;-5.02;48.52;102463.41;4987916;28;19949;-80
2021/01/10 09:39:54;;;;;;;;;;;;;;;-5.02;48.86;102476.03;4984898;28;19980;-81
2021/01/10 09:42:22;;;;;;;;;;;;;;;-5.00;48.97;102474.13;4981050;28;19918;-81
2021/01/10 09:44:52;;;;;;;;;;;;;;;-4.99;48.79;102475.84;4982215;28;19910;-81
2021/01/10 09:47:32;;;;;;;;;;;;;;;-4.90;49.21;102490.53;4989054;28;19925;-81
2021/01/10 09:50:00;;;;;;;;;;;;;;;-5.16;50.09;102501.28;4977848;28;19902;-82
2021/01/10 09:52:30;;;;;;;;;;;;;;;-5.18;50.91;102497.84;4994199;28;19949;-81
2021/01/10 09:54:57;;;;;;;;;;;;;;;-5.22;51.53;102494.47;4988831;28;20355;-80
2021/01/10 09:57:26;;;;;;;;;;;;;;;-5.29;51.81;102504.81;4980954;28;19913;-82
2021/01/10 10:00:03;;;;;;;;;;;;;;;-5.23;51.83;102496.28;4989851;28;19924;-84
2021/01/10 10:02:36;;;;;;;;;;;;;;;-5.14;51.06;102502.06;4987828;28;19922;-81
2021/01/10 10:05:15;;;;;;;;;;;;;;;-5.15;50.71;102505.72;4986006;28;19921;-81
2021/01/10 10:07:42;;;;;;;;;;;;;;;-5.00;50.41;102510.09;4985917;28;19932;-78
2021/01/10 10:10:08;;;;;;;;;;;;;;;-5.10;50.94;102511.69;4982351;28;19954;-80
2021/01/10 10:12:35;;;;;;;;;;;;;;;-5.11;50.84;102518.91;4984760;28;20005;-80
2021/01/10 10:15:12;;;;;;;;;;;;;;;-5.12;50.65;102524.44;4992895;28;19924;-84
2021/01/10 10:17:52;;;;;;;;;;;;;;;-5.06;50.59;102539.38;4982972;28;20370;-79
2021/01/10 10:20:18;;;;;;;;;;;;;;;-4.98;50.20;102537.00;4980514;28;19918;-84
2021/01/10 10:22:44;;;;;;;;;;;;;;;-4.84;49.73;102536.94;4966119;28;19925;-83
2021/01/10 10:25:14;;;;;;;;;;;;;;;-5.02;50.25;102539.06;4969912;28;20016;-82
2021/01/10 10:27:54;;;;;;;;;;;;;;;-4.89;50.42;102536.38;4987015;28;19922;-88
2021/01/10 10:30:24;;;;;;;;;;;;;;;-4.86;50.63;102540.72;4984195;28;19950;-88
2021/01/10 10:32:53;;;;;;;;;;;;;;;-4.92;50.68;102535.72;4987559;28;19936;-90
2021/01/10 10:35:19;;;;;;;;;;;;;;;-4.73;50.16;102529.94;4975441;28;19914;-80
2021/01/10 10:37:47;;;;;;;;;;;;;;;-4.71;49.79;102544.19;4979264;28;20359;-82
2021/01/10 10:40:13;;;;;;;;;;;;;;;-4.86;50.26;102546.13;4978707;28;20547;-81
2021/01/10 10:42:40;;;;;;;;;;;;;;;-4.81;50.42;102544.84;4983931;28;20008;-81
2021/01/10 10:45:06;;;;;;;;;;;;;;;-4.75;50.22;102540.00;4961813;28;19913;-79
2021/01/10 10:47:33;;;;;;;;;;;;;;;-4.74;50.06;102545.31;4978611;28;20271;-80
2021/01/10 10:49:59;;;;;;;;;;;;;;;-4.72;49.87;102553.28;4978030;28;19906;-83
2021/01/10 10:52:26;;;;;;;;;;;;;;;-4.70;49.94;102557.63;4980599;28;20334;-86
2021/01/10 10:54:52;;;;;;;;;;;;;;;-4.71;49.72;102557.72;4981773;28;19922;-87
2021/01/10 10:57:19;;;;;;;;;;;;;;;-4.66;49.30;102560.97;4979522;28;19974;-86
2021/01/10 10:59:45;;;;;;;;;;;;;;;-4.64;49.88;102571.69;4980238;28;20073;-84
2021/01/10 11:02:11;;;;;;;;;;;;;;;-4.67;50.15;102575.47;4980397;28;19929;-85
2021/01/10 11:04:39;;;;;;;;;;;;;;;-4.73;50.38;102573.19;4966742;28;20434;-90
2021/01/10 11:07:06;;;;;;;;;;;;;;;-4.74;49.94;102574.16;4985662;28;19917;-96
2021/01/10 11:09:37;;;;;;;;;;;;;;;-4.63;49.85;102581.53;4984481;28;19922;-84
2021/01/10 11:12:03;;;;;;;;;;;;;;;-4.57;49.57;102584.69;4977008;28;19968;-96
2021/01/10 11:14:30;;;;;;;;;;;;;;;-4.53;49.55;102580.81;4960009;28;19910;-92
2021/01/10 11:16:56;;;;;;;;;;;;;;;-4.62;48.81;102583.25;4974639;28;20661;-90
2021/01/10 11:19:22;;;;;;;;;;;;;;;-4.82;49.70;102586.34;4966325;28;19906;-93
2021/01/10 11:21:49;;;;;;;;;;;;;;;-4.76;49.48;102592.31;4973089;28;19965;-92
2021/01/10 11:24:16;;;;;;;;;;;;;;;-4.69;49.51;102591.78;4975488;28;19925;-90
2021/01/10 11:26:44;;;;;;;;;;;;;;;-4.78;50.06;102594.22;4975401;28;20330;-91
2021/01/10 11:29:10;;;;;;;;;;;;;;;-4.72;50.09;102583.00;4975735;28;19953;-93
2021/01/10 11:31:37;;;;;;;;;;;;;;;-4.74;49.82;102585.84;4960314;28;19941;-91
2021/01/10 11:34:04;;;;;;;;;;;;;;;-4.75;49.45;102586.78;4975634;28;19918;-92
2021/01/10 11:36:31;;;;;;;;;;;;;;;-4.70;49.86;102589.22;4977873;28;19918;-91
2021/01/10 11:38:57;;;;;;;;;;;;;;;-4.71;49.72;102587.44;4952301;28;19961;-83
2021/01/10 11:41:24;;;;;;;;;;;;;;;-4.89;50.03;102582.31;4972661;28;19984;-88
2021/01/10 11:43:53;;;;;;;;;;;;;;;-4.89;50.34;102595.81;4974955;28;20379;-81
2021/01/10 11:46:21;;;;;;;;;;;;;;;-4.95;50.20;102588.13;4957163;28;19926;-89
2021/01/10 11:48:47;;;;;;;;;;;;;;;-4.86;50.50;102586.66;4971744;28;19953;-82
2021/01/10 11:51:14;;;;;;;;;;;;;;;-4.92;50.34;102581.66;4955052;28;19941;-81
2021/01/10 11:53:41;;;;;;;;;;;;;;;-4.98;50.74;102570.28;4971860;28;19989;-82
2021/01/10 11:56:08;;;;;;;;;;;;;;;-5.00;50.49;102566.81;4970640;28;19921;-81
2021/01/10 11:58:34;;;;;;;;;;;;;;;-4.82;50.15;102571.94;4973308;28;19918;-81
2021/01/10 12:01:01;;;;;;;;;;;;;;;-4.98;50.26;102566.72;4972902;28;20561;-81
2021/01/10 12:03:27;;;;;;;;;;;;;;;-5.02;50.13;102567.88;4972773;28;19937;-82
2021/01/10 12:05:54;;;;;;;;;;;;;;;-5.17;50.46;102578.75;4971408;28;19926;-80
2021/01/10 12:08:21;;;;;;;;;;;;;;;-5.12;50.48;102571.22;4974669;28;19922;-80
2021/01/10 12:10:48;;;;;;;;;;;;;;;-5.16;50.58;102572.41;4980789;28;19933;-79
2021/01/10 12:13:16;;;;;;;;;;;;;;;-5.13;50.68;102566.78;4987497;28;19976;-81
2021/01/10 12:15:44;;;;;;;;;;;;;;;-5.10;51.16;102569.25;4975494;28;19918;-80
2021/01/10 12:18:10;;;;;;;;;;;;;;;-5.08;51.24;102569.16;4958007;28;19922;-79
2021/01/10 12:20:37;;;;;;;;;;;;;;;-5.10;51.30;102563.00;4973605;28;19957;-80
2021/01/10 12:23:03;;;;;;;;;;;;;;;-5.12;50.59;102568.50;4980462;28;20052;-83
2021/01/10 12:25:30;;;;;;;;;;;;;;;-4.99;50.08;102562.31;4983742;28;19922;-81
2021/01/10 12:27:57;;;;;;;;;;;;;;;-5.12;50.41;102568.50;4978854;28;19914;-82
2021/01/10 12:30:26;;;;;;;;;;;;;;;-5.32;51.11;102563.53;4974668;28;20401;-81
2021/01/10 12:32:53;;;;;;;;;;;;;;;-5.33;51.13;102567.22;4976834;28;19933;-82
2021/01/10 12:35:20;;;;;;;;;;;;;;;-5.31;51.05;102559.91;4979622;28;19933;-80
2021/01/10 12:37:48;;;;;;;;;;;;;;;-5.32;50.87;102550.03;4976291;28;19960;-80
2021/01/10 12:40:14;;;;;;;;;;;;;;;-5.33;51.53;102554.59;4981871;28;19918;-80
2021/01/10 12:42:41;;;;;;;;;;;;;;;-5.24;51.19;102553.09;4987907;28;19922;-82
2021/01/10 12:45:11;;;;;;;;;;;;;;;-5.29;51.24;102555.25;4985612;28;19917;-79
2021/01/10 12:47:39;;;;;;;;;;;;;;;-5.32;52.00;102560.84;4985653;28;19918;-80
2021/01/10 12:50:05;;;;;;;;;;;;;;;-5.20;51.79;102565.44;4988223;28;19968;-77
2021/01/10 12:52:34;;;;;;;;;;;;;;;-5.24;51.81;102569.31;4988967;28;19925;-81
2021/01/10 12:55:01;;;;;;;;;;;;;;;-5.33;51.63;102569.91;4964051;28;19933;-81
2021/01/10 12:57:27;;;;;;;;;;;;;;;-5.31;51.95;102565.31;4962026;28;19925;-81
2021/01/10 12:59:53;;;;;;;;;;;;;;;-5.23;51.77;102554.88;4979032;28;19926;-82
2021/01/10 13:02:20;;;;;;;;;;;;;;;-5.34;51.69;102558.28;4981071;28;20015;-83
2021/01/10 13:04:46;;;;;;;;;;;;;;;-5.28;51.82;102562.38;4985093;28;20390;-85
2021/01/10 13:07:12;;;;;;;;;;;;;;;-5.26;52.28;102555.03;4962859;28;20397;-83
2021/01/10 13:09:39;;;;;;;;;;;;;;;-5.26;52.14;102552.34;4978431;28;19918;-82
2021/01/10 13:12:08;;;;;;;;;;;;;;;-5.35;51.59;102545.75;4979423;28;19993;-82
2021/01/10 13:14:35;;;;;;;;;;;;;;;-5.38;51.81;102544.09;4977443;28;20698;-81
2021/01/10 13:17:03;;;;;;;;;;;;;;;-5.25;51.83;102540.56;4977142;28;19929;-81
2021/01/10 13:19:29;;;;;;;;;;;;;;;-5.30;51.78;102554.38;4976377;28;19933;-81
2021/01/10 13:21:56;;;;;;;;;;;;;;;-5.37;51.65;102588.16;4976198;28;19930;-82
2021/01/10 13:24:22;;;;;;;;;;;;;;;-5.22;51.58;102611.44;4974119;28;19914;-83
2021/01/10 13:26:55;;;;;;;;;;;;;;;-5.10;51.40;102609.78;4975092;28;20422;-80
2021/01/10 13:29:21;;;;;;;;;;;;;;;-5.03;51.19;102612.97;4976991;28;19985;-79
2021/01/10 13:31:47;;;;;;;;;;;;;;;-5.12;51.35;102641.44;4976968;28;20330;-79
2021/01/10 13:34:14;;;;;;;;;;;;;;;-4.92;50.93;102649.22;4979317;28;19921;-82
2021/01/10 13:36:40;;;;;;;;;;;;;;;-5.34;52.12;102654.59;4978513;28;20004;-80
2021/01/10 13:39:07;;;;;;;;;;;;;;;-5.41;52.48;102649.56;4977518;28;19933;-80
2021/01/10 13:41:33;;;;;;;;;;;;;;;-5.21;52.23;102650.16;4959648;28;20346;-81
2021/01/10 13:43:59;;;;;;;;;;;;;;;-5.27;52.16;102645.13;4979199;28;20402;-81